Time;durP1;ratioP1;P1;durP2;ratioP2;P2;SDS_P1;SDS_P2;PMS_P1;PMS_P2;Temp;Humidity;BMP_temperature;BMP_pressure;BME280_temperature;BME280_humidity;BME280_pressure;Samples;Min_cycle;Max_cycle;Signal;HPM_P1;HPM_P2
2023/09/02 00:02:28;;;;;;;6.07;2.28;;;;;;;29.70;74.64;100529.50;4920343;28;70054;-37
2023/09/02 00:04:59;;;;;;;7.50;2.40;;;;;;;29.71;71.98;100525.75;4905310;28;65677;-37
2023/09/02 00:07:29;;;;;;;3.10;1.90;;;;;;;29.72;68.60;100522.00;4925520;28;69954;-37
2023/09/02 00:09:59;;;;;;;2.78;1.85;;;;;;;29.73;68.86;100517.44;4909085;28;65998;-37
2023/09/02 00:12:29;;;;;;;3.63;2.03;;;;;;;29.74;68.15;100519.91;4926023;28;70477;-37
2023/09/02 00:14:59;;;;;;;5.22;2.50;;;;;;;29.77;68.08;100524.88;4924586;28;66476;-36
2023/09/02 00:17:31;;;;;;;2.78;2.00;;;;;;;29.78;68.50;100526.53;4924937;28;69883;-38
2023/09/02 00:20:07;;;;;;;8.38;2.22;;;;;;;29.83;68.05;100534.78;4894626;28;66220;-37
2023/09/02 00:22:37;;;;;;;4.25;2.40;;;;;;;29.86;68.38;100532.69;4921710;28;70093;-37
2023/09/02 00:25:07;;;;;;;10.77;7.10;;;;;;;29.88;68.55;100536.00;4924687;28;66508;-38
2023/09/02 00:27:38;;;;;;;32.13;22.02;;;;;;;29.89;69.03;100540.34;4923123;28;70146;-38
2023/09/02 00:30:08;;;;;;;48.67;34.40;;;;;;;29.91;68.90;100546.38;4907431;28;65453;-37
2023/09/02 00:32:38;;;;;;;55.75;36.95;;;;;;;29.92;68.97;100542.63;4920500;28;69131;-38
2023/09/02 00:35:09;;;;;;;56.30;36.80;;;;;;;29.94;69.39;100545.94;4922644;28;66473;-37
2023/09/02 00:37:39;;;;;;;49.78;34.67;;;;;;;29.95;69.23;100547.56;4921405;28;70462;-37
2023/09/02 00:40:15;;;;;;;50.88;35.08;;;;;;;29.98;69.46;100553.41;4912204;28;66154;-37
2023/09/02 00:42:47;;;;;;;44.83;33.65;;;;;;;29.75;69.22;100510.72;4923675;28;69961;-36
2023/09/02 00:45:21;;;;;;;;;;;;;;;29.67;72.76;100556.13;4914793;28;66100;-38
2023/09/02 00:47:53;;;;;;;45.30;29.67;;;;;;;29.92;69.32;100551.59;4913965;28;69572;-36
2023/09/02 00:50:23;;;;;;;42.55;30.35;;;;;;;29.96;69.90;100560.06;4876630;28;65378;-38
2023/09/02 00:52:53;;;;;;;44.80;29.52;;;;;;;30.00;69.51;100555.84;4923329;28;70632;-37
2023/09/02 00:55:23;;;;;;;39.90;27.25;;;;;;;30.02;69.49;100561.88;4918587;28;65748;-39
2023/09/02 00:57:56;;;;;;;34.33;24.67;;;;;;;29.96;69.52;100554.66;4923030;28;70510;-37
2023/09/02 01:00:26;;;;;;;28.95;22.95;;;;;;;30.05;69.27;100569.53;4923824;28;66934;-37
2023/09/02 01:02:58;;;;;;;24.48;20.23;;;;;;;29.84;69.65;100525.66;4910753;28;70219;-37
2023/09/02 01:05:29;;;;;;;24.52;20.60;;;;;;;30.07;69.83;100562.03;4920572;28;65340;-38
2023/09/02 01:08:02;;;;;;;23.75;18.17;;;;;;;30.07;69.78;100559.34;4916209;28;69555;-37
2023/09/02 01:10:37;;;;;;;22.23;16.67;;;;;;;29.79;69.93;100509.25;4922851;28;66925;-37
2023/09/02 01:13:07;;;;;;;16.83;13.98;;;;;;;30.12;69.53;100564.91;4918942;28;69579;-38
2023/09/02 01:15:37;;;;;;;17.95;14.43;;;;;;;30.09;70.28;100559.97;4919586;28;66821;-38
2023/09/02 01:18:07;;;;;;;12.63;11.38;;;;;;;30.14;70.36;100565.50;4905863;28;69766;-36
2023/09/02 01:21:06;;;;;;;11.93;10.20;;;;;;;30.06;71.03;100566.63;4924002;28;65026;-37
2023/09/02 01:24:00;;;;;;;11.65;10.48;;;;;;;29.96;70.74;100541.13;4899859;28;70078;-37
2023/09/02 01:26:48;;;;;;;15.00;10.40;;;;;;;30.16;70.62;100560.69;4904634;28;66102;-37
2023/09/02 01:29:21;;;;;;;11.00;9.38;;;;;;;30.10;70.10;100561.59;4921475;28;70536;-38
2023/09/02 01:31:53;;;;;;;10.73;9.63;;;;;;;29.91;70.37;100513.94;4922140;28;66033;-38
2023/09/02 01:34:24;;;;;;;9.35;8.07;;;;;;;30.21;70.39;100574.38;4905841;28;70272;-37
2023/09/02 01:36:55;;;;;;;8.43;7.53;;;;;;;30.22;70.36;100570.66;4923492;28;65810;-38
2023/09/02 01:39:26;;;;;;;11.50;7.40;;;;;;;30.23;70.64;100577.75;4920193;28;69544;-39
2023/09/02 01:41:59;;;;;;;8.35;6.60;;;;;;;30.26;70.72;100581.88;4914593;28;65795;-37
2023/09/02 01:44:31;;;;;;;7.30;6.53;;;;;;;30.27;70.61;100573.53;4921481;28;69274;-37
2023/09/02 01:47:02;;;;;;;6.82;6.15;;;;;;;30.28;70.76;100575.19;4919000;28;66156;-38
2023/09/02 01:49:33;;;;;;;5.70;5.10;;;;;;;30.30;70.83;100583.06;4903160;28;70224;-38
2023/09/02 01:52:04;;;;;;;7.00;5.10;;;;;;;30.32;71.12;100577.44;4922408;28;66954;-37
2023/09/02 01:54:35;;;;;;;11.70;5.43;;;;;;;30.33;71.23;100576.38;4934996;28;70459;-39
2023/09/02 01:57:05;;;;;;;5.27;4.77;;;;;;;30.34;71.19;100583.44;4911190;28;66001;-37
2023/09/02 01:59:35;;;;;;;5.85;4.20;;;;;;;30.36;70.85;100575.94;4890351;28;70208;-38
2023/09/02 02:02:06;;;;;;;3.88;3.45;;;;;;;30.32;71.11;100569.34;4904928;28;66420;-37
2023/09/02 02:04:42;;;;;;;4.30;3.90;;;;;;;30.19;71.14;100544.03;4934153;28;69013;-37
2023/09/02 02:07:14;;;;;;;3.50;3.20;;;;;;;30.32;70.96;100572.88;4921655;28;66902;-38
2023/09/02 02:09:50;;;;;;;4.13;3.75;;;;;;;30.44;70.77;100600.00;4905489;28;70201;-38
2023/09/02 02:12:21;;;;;;;3.92;3.53;;;;;;;30.46;71.15;100589.78;4923440;28;66214;-38
2023/09/02 02:14:51;;;;;;;3.55;3.05;;;;;;;30.43;71.21;100582.94;4889964;28;69439;-37
2023/09/02 02:17:21;;;;;;;3.83;3.47;;;;;;;30.48;71.15;100585.00;4905963;28;66806;-37
2023/09/02 02:19:52;;;;;;;3.33;3.03;;;;;;;30.50;71.07;100582.84;4904226;28;69992;-37
2023/09/02 02:22:22;;;;;;;7.35;3.00;;;;;;;30.53;71.27;100577.00;4889959;28;66256;-38
2023/09/02 02:24:52;;;;;;;4.70;2.60;;;;;;;30.53;71.09;100577.00;4900159;28;69386;-38
2023/09/02 02:27:23;;;;;;;3.33;2.83;;;;;;;30.51;71.54;100579.13;4919726;28;66821;-39
2023/09/02 02:29:53;;;;;;;3.50;2.80;;;;;;;30.56;71.59;100576.53;4929983;28;69527;-37
2023/09/02 02:32:23;;;;;;;5.18;2.47;;;;;;;30.59;71.45;100576.13;4917581;28;66605;-38
2023/09/02 02:34:54;;;;;;;4.03;2.50;;;;;;;30.58;71.16;100574.44;4906059;28;69769;-36
2023/09/02 02:37:23;;;;;;;4.70;2.28;;;;;;;30.61;71.20;100579.41;4904705;28;66331;-38
2023/09/02 02:39:54;;;;;;;2.97;2.55;;;;;;;30.65;71.58;100580.63;4922088;28;69465;-38
2023/09/02 02:42:24;;;;;;;2.58;2.38;;;;;;;30.66;71.17;100576.84;4888431;28;66047;-36
2023/09/02 02:44:54;;;;;;;3.00;2.70;;;;;;;30.67;70.99;100583.94;4916326;28;69237;-37
2023/09/02 02:47:24;;;;;;;3.10;2.30;;;;;;;30.69;71.29;100589.94;4918106;28;66154;-37
2023/09/02 02:49:55;;;;;;;5.15;2.63;;;;;;;30.71;70.80;100595.97;4924984;28;70434;-38
2023/09/02 02:52:25;;;;;;;2.50;2.30;;;;;;;30.74;70.77;100594.69;4908488;28;66595;-38
2023/09/02 02:54:56;;;;;;;2.60;2.35;;;;;;;30.76;70.76;100599.84;4928529;28;69629;-38
2023/09/02 02:57:26;;;;;;;2.25;2.03;;;;;;;30.75;70.28;100584.66;4910783;28;66579;-38
2023/09/02 02:59:56;;;;;;;2.33;2.13;;;;;;;30.79;70.66;100591.31;4936477;28;69544;-38
2023/09/02 03:02:26;;;;;;;3.67;2.50;;;;;;;30.80;72.52;100592.97;4903846;28;65488;-39
2023/09/02 03:04:56;;;;;;;11.77;3.40;;;;;;;30.75;73.09;100579.25;4916090;28;69895;-37
2023/09/02 03:07:27;;;;;;;8.20;2.72;;;;;;;30.78;73.86;100586.91;4916430;28;66627;-38
2023/09/02 03:09:57;;;;;;;6.00;2.85;;;;;;;30.75;74.09;100584.66;4905244;28;70226;-39
2023/09/02 03:12:28;;;;;;;4.65;2.83;;;;;;;30.70;74.56;100569.09;4921231;28;66540;-38
2023/09/02 03:14:59;;;;;;;5.43;2.55;;;;;;;30.77;75.00;100582.56;4905095;28;70044;-38
2023/09/02 03:17:30;;;;;;;6.38;2.70;;;;;;;30.68;74.63;100574.75;4902459;28;66011;-37
2023/09/02 03:20:00;;;;;;;5.40;3.30;;;;;;;30.78;75.28;100589.63;4900394;28;70466;-38
2023/09/02 03:22:33;;;;;;;3.58;2.70;;;;;;;30.80;74.38;100582.16;4899830;28;68337;-38
2023/09/02 03:25:04;;;;;;;3.53;2.20;;;;;;;30.80;75.15;100585.69;4914428;28;69782;-38
2023/09/02 03:27:40;;;;;;;8.07;2.83;;;;;;;30.29;75.39;100505.66;4920257;28;66512;-37
2023/09/02 03:30:10;;;;;;;6.65;2.40;;;;;;;30.73;75.21;100568.66;4918790;28;70016;-38
2023/09/02 03:32:40;;;;;;;8.68;2.90;;;;;;;30.87;74.84;100574.75;4904663;28;65356;-37
2023/09/02 03:35:11;;;;;;;6.53;2.38;;;;;;;30.88;75.19;100579.13;4916277;28;69294;-38
2023/09/02 03:37:45;;;;;;;9.68;2.67;;;;;;;30.93;74.51;100579.28;4902502;28;66136;-36
2023/09/02 03:40:15;;;;;;;4.78;2.22;;;;;;;30.93;74.43;100571.16;4924967;28;70070;-38
2023/09/02 03:42:45;;;;;;;5.80;2.92;;;;;;;30.91;74.22;100573.25;4915333;28;65217;-38
2023/09/02 03:45:16;;;;;;;8.27;2.70;;;;;;;30.94;74.14;100561.97;4916713;28;69421;-37
2023/09/02 03:47:46;;;;;;;5.88;3.03;;;;;;;30.86;74.59;100559.56;4907383;28;66305;-38
2023/09/02 03:50:22;;;;;;;6.00;2.92;;;;;;;30.94;74.32;100567.38;4901508;28;70128;-37
2023/09/02 03:52:54;;;;;;;4.80;2.83;;;;;;;30.90;74.11;100560.78;4920249;28;66647;-38
2023/09/02 03:55:24;;;;;;;8.98;2.55;;;;;;;30.92;74.12;100550.53;4928161;28;69975;-38
2023/09/02 03:57:54;;;;;;;8.55;2.92;;;;;;;30.94;74.23;100543.00;4918201;28;66244;-39
2023/09/02 04:00:26;;;;;;;4.18;3.28;;;;;;;30.98;74.47;100548.78;4915124;28;70208;-39
2023/09/02 04:02:56;;;;;;;5.10;2.83;;;;;;;30.95;74.56;100547.34;4916053;28;65704;-38
2023/09/02 04:05:26;;;;;;;4.80;2.78;;;;;;;30.98;74.30;100536.09;4902200;28;69528;-39
2023/09/02 04:07:58;;;;;;;3.78;3.13;;;;;;;31.01;74.28;100541.03;4914669;28;65861;-37
2023/09/02 04:10:28;;;;;;;4.85;2.60;;;;;;;30.99;74.19;100531.50;4919763;28;70204;-38
2023/09/02 04:12:58;;;;;;;5.72;2.90;;;;;;;31.03;73.81;100519.94;4921899;28;66355;-39
2023/09/02 04:15:29;;;;;;;4.68;2.90;;;;;;;31.04;74.06;100520.81;4900384;28;70219;-38
2023/09/02 04:17:59;;;;;;;3.78;2.85;;;;;;;31.05;74.28;100517.03;4926530;28;66796;-38
2023/09/02 04:20:29;;;;;;;5.78;4.47;;;;;;;31.07;74.58;100518.44;4913087;28;70508;-36
2023/09/02 04:22:59;;;;;;;11.13;5.22;;;;;;;31.08;75.10;100511.97;4921164;28;65659;-37
2023/09/02 04:25:29;;;;;;;6.55;4.93;;;;;;;31.12;74.87;100502.34;4914743;28;69185;-37
2023/09/02 04:27:59;;;;;;;7.13;5.07;;;;;;;31.09;75.45;100502.78;4904599;28;65228;-36
2023/09/02 04:30:30;;;;;;;8.07;5.47;;;;;;;31.07;75.42;100496.78;4914991;28;69525;-38
2023/09/02 04:33:01;;;;;;;23.08;8.32;;;;;;;31.13;75.96;100514.81;4921226;28;65790;-36
2023/09/02 04:35:43;;;;;;;23.13;10.23;;;;;;;30.98;77.00;100484.63;4913053;28;71444;-36
2023/09/02 04:38:17;;;;;;;20.20;9.10;;;;;;;31.08;79.49;100498.41;4902134;28;66339;-36
2023/09/02 04:40:50;;;;;;;16.98;10.23;;;;;;;31.06;79.60;100492.41;4900316;28;69113;-36
2023/09/02 04:43:21;;;;;;;20.52;11.60;;;;;;;31.08;79.45;100493.00;4918699;28;66220;-37
2023/09/02 04:45:54;;;;;;;17.27;11.63;;;;;;;31.09;79.82;100500.09;4901199;28;69958;-38
2023/09/02 04:48:24;;;;;;;16.30;11.63;;;;;;;31.04;79.43;100499.94;4901223;28;65456;-37
2023/09/02 04:50:55;;;;;;;18.17;11.57;;;;;;;31.09;79.63;100502.78;4920996;28;69863;-38
2023/09/02 04:53:27;;;;;;;16.33;10.90;;;;;;;31.09;79.68;100500.09;4903144;28;65259;-37
2023/09/02 04:55:59;;;;;;;12.48;10.52;;;;;;;31.08;79.12;100487.59;4923943;28;70352;-38
2023/09/02 04:58:32;;;;;;;10.90;9.85;;;;;;;31.13;78.11;100495.03;4906691;28;66712;-39
2023/09/02 05:01:12;;;;;;;11.23;8.50;;;;;;;31.20;77.74;100484.06;4910343;28;70789;-39
2023/09/02 05:03:50;;;;;;;13.15;9.18;;;;;;;31.24;77.00;100466.31;4920674;28;66417;-38
2023/09/02 05:06:20;;;;;;;12.88;9.55;;;;;;;31.28;76.67;100465.59;4935395;28;69567;-36
2023/09/02 05:08:54;;;;;;;9.52;8.60;;;;;;;31.33;76.49;100463.00;4924736;28;65702;-38
2023/09/02 05:11:28;;;;;;;8.80;7.95;;;;;;;31.31;77.79;100464.31;4895858;28;70023;-38
2023/09/02 05:14:00;;;;;;;7.88;7.22;;;;;;;31.33;77.72;100456.78;4893927;28;66230;-38
2023/09/02 05:16:33;;;;;;;7.57;6.88;;;;;;;31.33;77.70;100454.06;4911654;28;69558;-38
2023/09/02 05:19:03;;;;;;;7.25;6.65;;;;;;;31.25;77.73;100433.53;4905276;28;66505;-40
2023/09/02 05:21:33;;;;;;;7.20;6.57;;;;;;;31.32;77.64;100447.00;4931116;28;69997;-37
2023/09/02 05:24:04;;;;;;;9.13;5.95;;;;;;;31.29;77.75;100440.16;4908098;28;66219;-38
2023/09/02 05:26:35;;;;;;;5.97;5.35;;;;;;;31.01;78.45;100392.06;4904424;28;70187;-38
2023/09/02 05:29:05;;;;;;;6.37;5.73;;;;;;;31.28;78.29;100426.84;4919481;28;65584;-37
2023/09/02 05:31:35;;;;;;;11.15;5.18;;;;;;;31.24;78.67;100422.97;4907631;28;70376;-38
2023/09/02 05:34:06;;;;;;;5.45;4.82;;;;;;;31.27;78.35;100419.78;4923315;28;65354;-37
2023/09/02 05:36:36;;;;;;;4.93;4.53;;;;;;;31.30;78.06;100412.00;4919887;28;69577;-39
2023/09/02 05:39:07;;;;;;;4.60;4.20;;;;;;;31.30;78.13;100409.28;4918477;28;66299;-38
2023/09/02 05:41:38;;;;;;;4.60;3.65;;;;;;;31.33;77.85;100408.81;4921753;28;70157;-39
2023/09/02 05:44:08;;;;;;;4.73;4.17;;;;;;;31.34;77.48;100406.91;4925402;28;65092;-40
2023/09/02 05:46:38;;;;;;;4.47;3.70;;;;;;;31.36;77.29;100418.41;4913821;28;69972;-38
2023/09/02 05:49:09;;;;;;;3.85;3.45;;;;;;;31.30;77.45;100400.34;4908626;28;66456;-39
2023/09/02 05:51:40;;;;;;;2.58;2.38;;;;;;;31.21;77.32;100396.34;4899358;28;69585;-35
2023/09/02 05:54:10;;;;;;;3.13;2.80;;;;;;;30.97;75.16;100388.16;4916463;28;65265;-38
2023/09/02 05:56:41;;;;;;;2.85;2.03;;;;;;;31.03;74.44;100398.06;4926115;28;70246;-37
2023/09/02 05:59:12;;;;;;;1.58;1.48;;;;;;;30.88;71.79;100386.84;4934511;28;65506;-35
2023/09/02 06:01:44;;;;;;;1.65;1.42;;;;;;;30.79;70.12;100382.81;4924629;28;70523;-43
2023/09/02 06:04:15;;;;;;;3.17;1.40;;;;;;;30.69;69.09;100380.63;4916185;28;65610;-37
2023/09/02 06:06:46;;;;;;;1.88;1.10;;;;;;;30.63;68.52;100368.03;4916079;28;70546;-37
2023/09/02 06:09:17;;;;;;;0.82;0.80;;;;;;;30.51;68.77;100354.47;4920780;28;67100;-36
2023/09/02 06:11:46;;;;;;;0.80;0.65;;;;;;;30.39;66.60;100348.19;4916927;28;70505;-36
2023/09/02 06:14:17;;;;;;;1.75;1.08;;;;;;;30.40;66.02;100355.25;4923867;28;66597;-35
2023/09/02 06:16:47;;;;;;;2.67;0.77;;;;;;;30.32;66.53;100347.47;4924820;28;70305;-38
2023/09/02 06:19:17;;;;;;;1.90;0.60;;;;;;;30.26;64.39;100332.97;4929785;28;65879;-35
2023/09/02 06:21:47;;;;;;;1.58;0.80;;;;;;;30.25;63.85;100325.88;4916646;28;70538;-35
2023/09/02 06:24:17;;;;;;;3.42;0.80;;;;;;;30.12;63.59;100329.59;4919275;28;66270;-35
2023/09/02 06:26:47;;;;;;;2.13;0.70;;;;;;;30.20;63.39;100334.69;4917942;28;69978;-36
2023/09/02 06:29:17;;;;;;;0.93;0.60;;;;;;;30.11;62.10;100322.50;4922776;28;66155;-36
2023/09/02 06:31:47;;;;;;;2.63;0.60;;;;;;;30.12;62.27;100331.47;4923922;28;70154;-38
2023/09/02 06:34:22;;;;;;;1.00;0.52;;;;;;;30.02;61.66;100315.75;4920051;28;66032;-37
2023/09/02 06:36:52;;;;;;;3.08;0.50;;;;;;;30.05;60.98;100326.94;4924419;28;69856;-36
2023/09/02 06:39:22;;;;;;;0.52;0.50;;;;;;;30.07;63.37;100324.03;4930488;28;66165;-35
2023/09/02 06:41:53;;;;;;;0.90;0.52;;;;;;;29.99;62.13;100318.94;4927538;28;70428;-36
2023/09/02 06:44:29;;;;;;;0.93;0.50;;;;;;;29.98;60.75;100310.00;4912033;28;65766;-37
2023/09/02 06:46:59;;;;;;;0.85;0.50;;;;;;;29.99;60.47;100314.34;4934687;28;70590;-38
2023/09/02 06:49:33;;;;;;;0.82;0.50;;;;;;;29.98;59.98;100298.38;4920691;28;66879;-39
2023/09/02 06:52:03;;;;;;;1.30;0.60;;;;;;;29.93;60.48;100280.09;4920125;28;70388;-38
2023/09/02 06:54:34;;;;;;;0.40;0.30;;;;;;;29.98;61.31;100298.38;4916045;28;65618;-37
2023/09/02 06:57:04;;;;;;;0.68;0.30;;;;;;;29.96;59.63;100290.47;4905686;28;70141;-35
2023/09/02 06:59:34;;;;;;;0.60;0.30;;;;;;;29.99;60.89;100297.28;4925966;28;66746;-35
2023/09/02 07:02:04;;;;;;;0.40;0.30;;;;;;;29.94;59.03;100292.56;4919283;28;70149;-36
2023/09/02 07:04:34;;;;;;;0.30;0.30;;;;;;;29.94;58.57;100297.16;4903453;28;66303;-36
2023/09/02 07:07:04;;;;;;;0.65;0.50;;;;;;;29.91;58.05;100308.44;4921414;28;70455;-37
2023/09/02 07:09:35;;;;;;;0.40;0.30;;;;;;;29.96;58.96;100300.47;4923268;28;65680;-36
2023/09/02 07:12:05;;;;;;;0.60;0.35;;;;;;;29.92;56.99;100304.66;4927821;28;70147;-35
2023/09/02 07:14:35;;;;;;;0.40;0.40;;;;;;;29.92;56.95;100299.25;4923399;28;65898;-35
2023/09/02 07:17:05;;;;;;;0.80;0.40;;;;;;;29.90;57.88;100306.78;4922440;28;68743;-36
2023/09/02 07:19:36;;;;;;;0.50;0.50;;;;;;;29.86;56.76;100308.28;4934685;28;66031;-36
2023/09/02 07:22:06;;;;;;;0.45;0.40;;;;;;;29.87;57.35;100296.44;4924644;28;70294;-36
2023/09/02 07:24:36;;;;;;;1.85;0.60;;;;;;;29.77;56.10;100297.75;4923066;28;66222;-36
2023/09/02 07:27:06;;;;;;;0.88;0.63;;;;;;;29.83;56.17;100296.03;4934022;28;69742;-35
2023/09/02 07:29:36;;;;;;;0.88;0.77;;;;;;;29.61;55.81;100277.56;4932111;28;65725;-36
2023/09/02 07:32:06;;;;;;;1.17;0.77;;;;;;;29.82;57.88;100284.41;4927869;28;70300;-36
2023/09/02 07:34:41;;;;;;;0.85;0.82;;;;;;;29.79;55.50;100282.16;4927994;28;66388;-35
2023/09/02 07:37:11;;;;;;;0.80;0.75;;;;;;;29.74;55.72;100282.00;4925227;28;70051;-35
2023/09/02 07:39:41;;;;;;;1.33;1.20;;;;;;;29.80;57.00;100280.28;4920180;28;66210;-35
2023/09/02 07:42:11;;;;;;;2.47;0.90;;;;;;;29.69;55.45;100260.22;4924558;28;70832;-36
2023/09/02 07:44:41;;;;;;;0.88;0.88;;;;;;;29.77;54.97;100275.31;4926019;28;66512;-37
2023/09/02 07:47:11;;;;;;;1.00;0.73;;;;;;;29.68;55.42;100266.69;4927392;28;70007;-36
2023/09/02 07:49:41;;;;;;;1.67;0.90;;;;;;;29.72;55.87;100246.25;4919296;28;65943;-37
2023/09/02 07:52:11;;;;;;;4.47;0.90;;;;;;;29.74;54.79;100238.75;4919886;28;69561;-37
2023/09/02 07:54:41;;;;;;;0.88;0.70;;;;;;;29.74;54.55;100246.88;4908745;28;66265;-36
2023/09/02 07:57:11;;;;;;;1.20;0.82;;;;;;;29.72;54.39;100257.06;4912228;28;69892;-36
2023/09/02 07:59:41;;;;;;;1.60;1.50;;;;;;;29.68;58.47;100228.84;4921251;28;66285;-35
2023/09/02 08:02:11;;;;;;;2.03;1.92;;;;;;;29.76;56.97;100247.47;4919763;28;70673;-37
2023/09/02 08:04:41;;;;;;;1.98;1.80;;;;;;;29.71;56.53;100231.09;4919951;28;65907;-37
2023/09/02 08:07:11;;;;;;;2.35;2.25;;;;;;;29.74;55.72;100236.03;4914062;28;69769;-37
2023/09/02 08:09:42;;;;;;;2.35;2.15;;;;;;;29.69;55.32;100235.09;4928991;28;66206;-35
2023/09/02 08:12:12;;;;;;;2.95;2.75;;;;;;;29.65;55.63;100218.50;4924973;28;70541;-37
2023/09/02 08:14:42;;;;;;;2.67;2.47;;;;;;;29.64;54.45;100224.94;4924753;28;66217;-39
2023/09/02 08:17:15;;;;;;;2.85;2.28;;;;;;;29.42;53.59;100183.22;4913134;28;70043;-35
2023/09/02 08:19:45;;;;;;;3.03;2.40;;;;;;;29.58;53.38;100215.03;4908212;28;65497;-36
2023/09/02 08:22:15;;;;;;;3.38;3.08;;;;;;;29.67;56.42;100208.28;4920303;28;70388;-36
2023/09/02 08:24:45;;;;;;;6.85;4.15;;;;;;;29.88;62.04;100216.94;4926880;28;65761;-37
2023/09/02 08:27:15;;;;;;;10.75;5.25;;;;;;;30.11;62.12;100217.00;4920339;28;69960;-35
2023/09/02 08:29:45;;;;;;;8.80;4.90;;;;;;;30.33;61.44;100224.63;4914378;28;66594;-36
2023/09/02 08:32:16;;;;;;;5.40;5.00;;;;;;;30.47;61.40;100228.78;4904229;28;68997;-35
2023/09/02 08:34:46;;;;;;;4.82;4.53;;;;;;;30.57;61.31;100220.91;4923024;28;65642;-36
2023/09/02 08:37:16;;;;;;;5.75;5.35;;;;;;;30.67;60.92;100221.16;4922780;28;70478;-38
2023/09/02 08:39:47;;;;;;;5.63;5.10;;;;;;;30.75;61.30;100233.50;4920712;28;65598;-37
2023/09/02 08:42:18;;;;;;;7.33;5.67;;;;;;;30.51;61.47;100175.84;4920119;28;70525;-37
2023/09/02 08:44:51;;;;;;;7.25;6.75;;;;;;;30.65;61.53;100173.72;4913506;28;66452;-37
2023/09/02 08:47:23;;;;;;;6.90;6.40;;;;;;;30.98;61.73;100221.91;4922620;28;70110;-37
2023/09/02 08:49:53;;;;;;;6.28;5.78;;;;;;;31.01;61.85;100210.59;4913765;28;66723;-38
2023/09/02 08:52:24;;;;;;;7.65;6.93;;;;;;;31.09;62.44;100221.06;4923979;28;69921;-36
2023/09/02 08:54:55;;;;;;;7.30;6.07;;;;;;;31.19;62.75;100225.03;4920543;28;66557;-37
2023/09/02 08:57:25;;;;;;;7.78;7.18;;;;;;;31.24;62.58;100228.69;4921356;28;70197;-41
2023/09/02 08:59:55;;;;;;;9.57;7.35;;;;;;;31.21;62.66;100212.09;4919727;28;66256;-38
2023/09/02 09:02:26;;;;;;;9.10;6.85;;;;;;;31.29;63.24;100233.41;4908009;28;70328;-36
2023/09/02 09:05:01;;;;;;;7.13;6.70;;;;;;;30.96;63.15;100186.09;4921730;28;66587;-36
2023/09/02 09:07:32;;;;;;;7.70;7.05;;;;;;;31.22;63.59;100221.84;4917596;28;70359;-35
2023/09/02 09:10:03;;;;;;;8.93;8.10;;;;;;;31.38;63.78;100248.25;4923658;28;66760;-35
2023/09/02 09:12:34;;;;;;;9.77;8.88;;;;;;;31.42;63.98;100252.13;4917740;28;70274;-35
2023/09/02 09:15:06;;;;;;;8.55;7.75;;;;;;;31.39;64.18;100245.28;4916609;28;66577;-35
2023/09/02 09:17:38;;;;;;;9.35;8.55;;;;;;;31.47;64.10;100256.81;4902042;28;69010;-35
2023/09/02 09:20:09;;;;;;;10.65;8.10;;;;;;;31.48;64.30;100253.91;4924407;28;66497;-36
2023/09/02 09:22:40;;;;;;;8.38;7.68;;;;;;;31.51;64.33;100258.84;4919788;28;70391;-37
2023/09/02 09:25:11;;;;;;;9.10;8.30;;;;;;;31.12;64.47;100204.31;4922793;28;65040;-36
2023/09/02 09:27:41;;;;;;;9.40;8.50;;;;;;;31.52;64.84;100260.47;4915189;28;68907;-35
2023/09/02 09:30:32;;;;;;;8.18;7.32;;;;;;;31.44;65.25;100268.97;4896073;28;65387;-35
2023/09/02 09:33:05;;;;;;;8.63;7.80;;;;;;;31.54;64.89;100274.63;4929920;28;70087;-36
2023/09/02 09:35:37;;;;;;;8.23;7.63;;;;;;;31.56;65.35;100280.59;4920646;28;66207;-39
2023/09/02 09:38:07;;;;;;;8.10;7.50;;;;;;;31.29;65.07;100238.81;4913926;28;69723;-35
2023/09/02 09:40:38;;;;;;;9.48;7.53;;;;;;;31.50;66.07;100289.69;4917899;28;65399;-37
2023/09/02 09:43:18;;;;;;;10.32;8.85;;;;;;;31.25;69.33;100303.47;4914125;28;69572;-36
2023/09/02 09:45:50;;;;;;;9.38;8.48;;;;;;;31.21;70.25;100302.31;4913955;28;66055;-35
2023/09/02 09:48:21;;;;;;;8.88;8.15;;;;;;;31.36;67.59;100297.25;4920695;28;70014;-36
2023/09/02 09:50:51;;;;;;;7.25;6.68;;;;;;;31.43;67.34;100302.56;4898845;28;65633;-35
2023/09/02 09:53:21;;;;;;;7.95;7.18;;;;;;;31.43;67.24;100299.03;4920783;28;69190;-36
2023/09/02 09:55:51;;;;;;;6.38;5.88;;;;;;;31.50;67.01;100305.13;4905526;28;66108;-36
2023/09/02 09:58:24;;;;;;;9.63;7.45;;;;;;;31.50;67.42;100308.66;4923067;28;70489;-36
2023/09/02 10:00:55;;;;;;;8.02;7.38;;;;;;;31.36;69.72;100299.16;4919155;28;66532;-35
2023/09/02 10:03:31;;;;;;;8.35;6.78;;;;;;;31.22;71.72;100301.25;4914491;28;70464;-35
2023/09/02 10:06:02;;;;;;;8.50;7.45;;;;;;;31.36;70.53;100320.81;4902424;28;65463;-36
2023/09/02 10:08:49;;;;;;;7.63;7.03;;;;;;;31.22;71.82;100324.81;4922153;28;70454;-35
2023/09/02 10:11:24;;;;;;;10.15;7.90;;;;;;;31.30;72.08;100327.16;4899874;28;66305;-35
2023/09/02 10:13:54;;;;;;;8.35;7.63;;;;;;;31.30;71.61;100324.47;4907967;28;70491;-35
2023/09/02 10:16:25;;;;;;;9.30;8.60;;;;;;;31.29;72.27;100344.50;4926850;28;66595;-37
2023/09/02 10:18:56;;;;;;;13.63;8.15;;;;;;;31.33;72.29;100348.38;4905157;28;69170;-35
2023/09/02 10:21:29;;;;;;;17.20;7.85;;;;;;;31.37;72.74;100363.13;4924317;28;67162;-37
2023/09/02 10:24:04;;;;;;;8.18;7.38;;;;;;;31.07;73.87;100317.97;4897501;28;68500;-35
2023/09/02 10:26:45;;;;;;;14.02;9.07;;;;;;;31.27;74.68;100371.81;4918501;28;65521;-36
2023/09/02 10:29:18;;;;;;;11.77;8.82;;;;;;;30.87;71.11;100279.56;4924105;28;70523;-35
2023/09/02 10:31:52;;;;;;;10.35;7.25;;;;;;;31.50;71.16;100381.84;4925314;28;66616;-36
2023/09/02 10:34:40;;;;;;;12.07;7.90;;;;;;;30.84;71.37;100280.88;4916380;28;70240;-35
2023/09/02 10:37:15;;;;;;;8.43;7.45;;;;;;;31.52;70.60;100385.16;4907874;28;65185;-35
2023/09/02 10:40:04;;;;;;;16.58;7.43;;;;;;;31.48;71.12;100384.00;4894578;28;69160;-36
2023/09/02 10:42:35;;;;;;;8.82;8.00;;;;;;;31.54;70.07;100382.22;4922385;28;66168;-35
2023/09/02 10:45:06;;;;;;;9.35;7.95;;;;;;;31.46;69.79;100374.44;4920494;28;71643;-36
2023/09/02 10:47:36;;;;;;;13.30;7.63;;;;;;;31.46;70.05;100375.28;4916471;28;65562;-37
2023/09/02 10:50:08;;;;;;;10.70;6.95;;;;;;;31.20;69.96;100329.63;4916957;28;70131;-35
2023/09/02 10:52:39;;;;;;;8.43;7.53;;;;;;;31.54;69.83;100404.75;4921454;28;66232;-34
2023/09/02 10:55:10;;;;;;;8.10;7.30;;;;;;;31.57;69.76;100398.84;4915551;28;69308;-34
2023/09/02 10:57:56;;;;;;;8.38;6.70;;;;;;;31.47;70.61;100404.00;4922863;28;65479;-35
2023/09/02 11:00:28;;;;;;;6.97;6.45;;;;;;;31.57;69.56;100415.09;4893865;28;68791;-36
2023/09/02 11:02:58;;;;;;;;;;;;;;;31.13;73.60;100408.34;4918047;28;67033;-35
2023/09/02 11:05:29;;;;;;;6.70;5.93;;;;;;;31.23;74.21;100407.75;4917636;28;69761;-35
2023/09/02 11:07:59;;;;;;;8.20;5.47;;;;;;;31.21;74.34;100405.28;4913730;28;66037;-35
2023/09/02 11:10:51;;;;;;;6.10;5.60;;;;;;;31.11;75.30;100411.25;4918053;28;70027;-36
2023/09/02 11:13:21;;;;;;;6.00;4.97;;;;;;;31.12;75.53;100407.50;4921240;28;66245;-36
2023/09/02 11:16:14;;;;;;;4.88;4.43;;;;;;;31.05;75.69;100409.50;4921790;28;69631;-34
2023/09/02 11:18:44;;;;;;;10.35;4.57;;;;;;;31.10;76.04;100414.22;4918319;28;65689;-36
2023/09/02 11:21:43;;;;;;;5.20;4.72;;;;;;;31.01;76.28;100411.03;4919758;28;70144;-35
2023/09/02 11:24:14;;;;;;;5.63;5.05;;;;;;;31.08;75.93;100419.84;4918569;28;66459;-35
2023/09/02 11:26:54;;;;;;;8.20;4.85;;;;;;;30.97;76.63;100409.81;4920572;28;70532;-35
2023/09/02 11:29:29;;;;;;;8.07;5.47;;;;;;;31.06;76.65;100430.09;4919973;28;66689;-35
2023/09/02 11:32:01;;;;;;;5.47;4.90;;;;;;;31.04;77.04;100423.28;4920575;28;70165;-34
2023/09/02 11:34:32;;;;;;;6.82;4.95;;;;;;;31.07;76.70;100437.19;4898825;28;67053;-36
2023/09/02 11:37:03;;;;;;;10.55;4.97;;;;;;;31.08;76.41;100438.81;4919176;28;69614;-35
2023/09/02 11:39:33;;;;;;;5.45;4.97;;;;;;;31.05;77.10;100439.28;4916158;28;64814;-35
2023/09/02 11:42:06;;;;;;;5.60;5.10;;;;;;;31.10;77.50;100446.72;4883814;28;70228;-37
2023/09/02 11:44:37;;;;;;;6.88;5.18;;;;;;;31.08;77.99;100438.81;4923669;28;65935;-35
2023/09/02 11:47:07;;;;;;;5.05;4.55;;;;;;;30.96;75.45;100453.41;4916690;28;69283;-34